sensor_id;sensor_type;location;lat;lon;timestamp;pressure;altitude;pressure_sealevel;temperature;humidity
69593;BME280;56796;50.122;14.468;2024-01-11T00:00:41;992.41;;;-5.9;85.3
69593;BME280;56796;50.122;14.468;2024-01-11T00:20:07;992.2;;;-6.07;85.38
69593;BME280;56796;50.122;14.468;2024-01-11T00:39:30;992.22;;;-6.33;86.77
69593;BME280;56796;50.122;14.468;2024-01-11T00:58:54;991.99;;;-6.52;87.92
69593;BME280;56796;50.122;14.468;2024-01-11T01:37:38;991.95;;;-6.79;88.24
69593;BME280;56796;50.122;14.468;2024-01-11T01:57:03;991.92;;;-7.01;88.78
69593;BME280;56796;50.122;14.468;2024-01-11T02:16:28;991.73;;;-7.43;90.32
69593;BME280;56796;50.122;14.468;2024-01-11T02:35:52;991.65;;;-7.52;90.61
69593;BME280;56796;50.122;14.468;2024-01-11T02:55:17;991.54;;;-7.56;90.39
69593;BME280;56796;50.122;14.468;2024-01-11T03:14:42;991.68;;;-7.65;89.98
69593;BME280;56796;50.122;14.468;2024-01-11T03:34:10;991.61;;;-7.44;90.17
69593;BME280;56796;50.122;14.468;2024-01-11T03:53:27;991.68;;;-7.63;90.46
69593;BME280;56796;50.122;14.468;2024-01-11T04:12:53;991.71;;;-7.66;91.04
69593;BME280;56796;50.122;14.468;2024-01-11T04:32:18;991.77;;;-7.77;91.08
69593;BME280;56796;50.122;14.468;2024-01-11T04:51:45;991.66;;;-7.9;91.92
69593;BME280;56796;50.122;14.468;2024-01-11T05:11:02;991.55;;;-8.09;92.49
69593;BME280;56796;50.122;14.468;2024-01-11T05:30:26;991.71;;;-8.1;92.79
69593;BME280;56796;50.122;14.468;2024-01-11T05:49:52;991.71;;;-8.2;92.88
69593;BME280;56796;50.122;14.468;2024-01-11T06:09:18;991.75;;;-8.3;92.87
69593;BME280;56796;50.122;14.468;2024-01-11T06:28:42;991.9;;;-8.27;92.72
69593;BME280;56796;50.122;14.468;2024-01-11T06:48:07;991.81;;;-8.24;92.5
69593;BME280;56796;50.122;14.468;2024-01-11T07:07:33;991.8;;;-7.86;92.28
69593;BME280;56796;50.122;14.468;2024-01-11T07:27:03;991.78;;;-5.52;89.83
69593;BME280;56796;50.122;14.468;2024-01-11T07:46:33;991.42;;;-3.43;82.38
69593;BME280;56796;50.122;14.468;2024-01-11T08:06:06;991.2;;;-2.95;76.95
69593;BME280;56796;50.122;14.468;2024-01-11T08:25:39;991.25;;;-0.54;69.72
69593;BME280;56796;50.122;14.468;2024-01-11T08:45:12;990.84;;;0.11;65.24
69593;BME280;56796;50.122;14.468;2024-01-11T09:04:34;991.04;;;-2.96;70.44
69593;BME280;56796;50.122;14.468;2024-01-11T09:24:00;991.12;;;-0.16;68.94
69593;BME280;56796;50.122;14.468;2024-01-11T09:43:31;990.93;;;-0.34;65.19
69593;BME280;56796;50.122;14.468;2024-01-11T10:02:54;990.81;;;3.49;63.51
69593;BME280;56796;50.122;14.468;2024-01-11T10:22:32;990.45;;;8.54;50.86
69593;BME280;56796;50.122;14.468;2024-01-11T10:42:12;990.77;;;3.93;52.72
69593;BME280;56796;50.122;14.468;2024-01-11T11:01:29;990.5;;;6.06;55.01
69593;BME280;56796;50.122;14.468;2024-01-11T11:21:08;990.32;;;7.27;49.02
69593;BME280;56796;50.122;14.468;2024-01-11T11:40:21;990.09;;;1.28;60.8
69593;BME280;56796;50.122;14.468;2024-01-11T11:59:36;989.84;;;0.49;65.21
69593;BME280;56796;50.122;14.468;2024-01-11T12:19:08;989.09;;;5.65;55.93
69593;BME280;56796;50.122;14.468;2024-01-11T12:38:46;989.02;;;5.33;52.81
69593;BME280;56796;50.122;14.468;2024-01-11T12:58:07;988.89;;;3.54;56.37
69593;BME280;56796;50.122;14.468;2024-01-11T13:17:26;989.13;;;1.37;62.89
69593;BME280;56796;50.122;14.468;2024-01-11T13:36:43;988.9;;;1.12;66.02
69593;BME280;56796;50.122;14.468;2024-01-11T13:56:06;988.8;;;0.77;67.83
69593;BME280;56796;50.122;14.468;2024-01-11T14:15:28;988.82;;;0.55;69.53
69593;BME280;56796;50.122;14.468;2024-01-11T14:34:52;988.6;;;0.38;70.41
69593;BME280;56796;50.122;14.468;2024-01-11T14:54:18;988.65;;;-0.07;72.1
69593;BME280;56796;50.122;14.468;2024-01-11T15:13:41;988.78;;;-0.41;73.67
69593;BME280;56796;50.122;14.468;2024-01-11T15:33:06;988.69;;;-0.32;74.25
69593;BME280;56796;50.122;14.468;2024-01-11T15:52:31;988.58;;;-0.27;74.88
69593;BME280;56796;50.122;14.468;2024-01-11T16:11:56;988.83;;;-0.55;75.66
69593;BME280;56796;50.122;14.468;2024-01-11T16:31:21;988.76;;;-0.92;76.65
69593;BME280;56796;50.122;14.468;2024-01-11T16:50:46;988.79;;;-1;77.58
69593;BME280;56796;50.122;14.468;2024-01-11T17:10:11;988.73;;;-1.15;77.73
69593;BME280;56796;50.122;14.468;2024-01-11T17:29:36;988.91;;;-1.27;79.22
69593;BME280;56796;50.122;14.468;2024-01-11T17:49:01;988.94;;;-1.53;80.14
69593;BME280;56796;50.122;14.468;2024-01-11T18:08:27;989.35;;;-1.85;79.43
69593;BME280;56796;50.122;14.468;2024-01-11T18:27:51;989.31;;;-1.71;75.91
69593;BME280;56796;50.122;14.468;2024-01-11T18:47:17;989.54;;;-2.31;75.4
69593;BME280;56796;50.122;14.468;2024-01-11T19:06:40;989.7;;;-2.9;75.93
69593;BME280;56796;50.122;14.468;2024-01-11T19:26:04;990;;;-3.29;76.4
69593;BME280;56796;50.122;14.468;2024-01-11T19:45:28;990.19;;;-3.61;78.31
69593;BME280;56796;50.122;14.468;2024-01-11T20:04:52;990.25;;;-3.94;80.55
69593;BME280;56796;50.122;14.468;2024-01-11T20:24:17;990.54;;;-4.07;81.8
69593;BME280;56796;50.122;14.468;2024-01-11T20:43:41;990.68;;;-4.12;84.67
69593;BME280;56796;50.122;14.468;2024-01-11T21:03:07;990.8;;;-3.87;85.7
69593;BME280;56796;50.122;14.468;2024-01-11T21:22:36;990.55;;;-3.75;84.43
69593;BME280;56796;50.122;14.468;2024-01-11T21:41:53;990.52;;;-3.75;83.58
69593;BME280;56796;50.122;14.468;2024-01-11T22:01:19;990.73;;;-3.6;83.13
69593;BME280;56796;50.122;14.468;2024-01-11T22:20:45;990.88;;;-3.6;82.97
69593;BME280;56796;50.122;14.468;2024-01-11T22:40:10;991.15;;;-3.75;83.44
69593;BME280;56796;50.122;14.468;2024-01-11T22:59:36;991.25;;;-3.66;85.44
69593;BME280;56796;50.122;14.468;2024-01-11T23:19:03;991.21;;;-3.65;86.62
69593;BME280;56796;50.122;14.468;2024-01-11T23:38:28;991.18;;;-3.59;86.89
69593;BME280;56796;50.122;14.468;2024-01-11T23:57:54;991.1;;;-3.49;86.57
